Time;durP1;ratioP1;P1;durP2;ratioP2;P2;SDS_P1;SDS_P2;PMS_P1;PMS_P2;Temp;Humidity;BMP_temperature;BMP_pressure;BME280_temperature;BME280_humidity;BME280_pressure;Samples;Min_cycle;Max_cycle;Signal;HPM_P1;HPM_P2
2023/02/10 00:03:43;;;;;;;4.10;1.90;;;17.70;59.80;;;;;;10450718;28;20080;-24
2023/02/10 00:08:47;;;;;;;3.92;1.67;;;17.60;59.80;;;;;;10454795;28;20118;-24
2023/02/10 00:13:51;;;;;;;4.53;1.88;;;17.60;59.80;;;;;;10449337;28;20144;-25
2023/02/10 00:18:53;;;;;;;3.20;1.67;;;17.60;59.80;;;;;;10451400;28;20118;-25
2023/02/10 00:23:55;;;;;;;5.95;1.92;;;17.60;59.80;;;;;;10451888;28;20580;-25
2023/02/10 00:28:59;;;;;;;3.15;1.77;;;17.60;59.70;;;;;;10452434;28;20053;-26
2023/02/10 00:34:01;;;;;;;4.80;1.73;;;17.60;59.50;;;;;;10452720;28;20512;-27
2023/02/10 00:39:03;;;;;;;2.45;1.30;;;17.50;59.60;;;;;;10451803;28;20064;-25
2023/02/10 00:44:06;;;;;;;3.80;1.42;;;17.50;59.70;;;;;;10451337;28;20045;-25
2023/02/10 00:49:10;;;;;;;3.35;1.58;;;17.50;59.60;;;;;;10451724;28;20061;-27
2023/02/10 00:54:13;;;;;;;3.33;1.60;;;17.50;59.60;;;;;;10450700;28;20144;-25
2023/02/10 00:59:16;;;;;;;2.47;1.60;;;17.50;59.60;;;;;;10448451;28;20045;-28
2023/02/10 01:04:18;;;;;;;5.22;2.10;;;17.40;59.70;;;;;;10453659;28;20377;-24
2023/02/10 01:09:20;;;;;;;3.10;1.48;;;17.40;59.60;;;;;;10449954;28;20595;-24
2023/02/10 01:14:25;;;;;;;3.73;1.57;;;17.40;59.60;;;;;;10446663;28;20114;-24
2023/02/10 01:19:27;;;;;;;2.00;1.20;;;17.40;59.60;;;;;;10448298;28;20049;-26
2023/02/10 01:24:29;;;;;;;2.45;1.10;;;17.40;59.70;;;;;;10455378;28;20057;-25
2023/02/10 01:29:32;;;;;;;4.03;1.25;;;17.40;59.70;;;;;;10446765;28;20076;-25
2023/02/10 01:34:34;;;;;;;3.45;1.58;;;17.30;59.60;;;;;;10423081;28;20749;-25
2023/02/10 01:39:36;;;;;;;2.30;1.50;;;17.30;59.80;;;;;;10445141;28;20076;-26
2023/02/10 01:45:13;;;;;;;2.35;1.35;;;17.30;59.80;;;;;;10447239;28;20044;-25
2023/02/10 01:50:16;;;;;;;2.90;1.40;;;17.20;59.90;;;;;;10443288;28;20052;-25
2023/02/10 01:55:21;;;;;;;3.83;1.65;;;17.20;59.90;;;;;;10448008;28;20052;-26
2023/02/10 02:00:26;;;;;;;3.40;1.50;;;17.20;59.90;;;;;;10447890;28;20445;-25
2023/02/10 02:05:33;;;;;;;2.67;1.42;;;17.20;59.90;;;;;;10441279;28;20055;-24
2023/02/10 02:10:58;;;;;;;2.05;1.10;;;17.20;60.00;;;;;;10453445;28;20076;-25
2023/02/10 02:16:10;;;;;;;2.10;1.20;;;17.20;60.00;;;;;;10426653;28;20103;-27
2023/02/10 02:21:46;;;;;;;1.63;1.23;;;17.10;60.00;;;;;;10448329;28;20144;-24
2023/02/10 02:27:16;;;;;;;2.83;1.30;;;17.10;60.10;;;;;;10434404;28;20663;-24
2023/02/10 02:32:21;;;;;;;3.33;1.33;;;17.10;60.70;;;;;;10445593;28;20559;-25
2023/02/10 02:37:27;;;;;;;2.38;1.52;;;17.00;60.10;;;;;;10445316;28;20111;-24
2023/02/10 02:42:30;;;;;;;1.70;1.15;;;17.00;60.60;;;;;;10437590;28;20056;-24
2023/02/10 02:47:59;;;;;;;3.30;1.05;;;17.00;60.00;;;;;;10439235;28;20118;-24
2023/02/10 02:53:12;;;;;;;2.47;1.15;;;17.00;60.00;;;;;;10445050;28;20319;-26
2023/02/10 02:58:19;;;;;;;2.28;1.35;;;17.00;60.00;;;;;;10440613;28;20136;-25
2023/02/10 03:03:23;;;;;;;3.10;1.30;;;17.00;60.00;;;;;;10445511;28;20048;-25
2023/02/10 03:08:24;;;;;;;1.88;1.10;;;17.00;60.00;;;;;;10449271;28;20136;-25
2023/02/10 03:13:26;;;;;;;2.20;0.97;;;16.90;60.00;;;;;;10444797;28;20045;-24
2023/02/10 03:18:30;;;;;;;2.33;1.10;;;16.90;60.00;;;;;;10434500;28;20106;-33
2023/02/10 03:23:32;;;;;;;2.45;1.27;;;16.90;60.10;;;;;;10446726;28;20041;-24
2023/02/10 03:28:34;;;;;;;2.53;0.90;;;16.90;60.10;;;;;;10434594;28;20094;-29
2023/02/10 03:33:37;;;;;;;3.53;1.45;;;16.90;60.00;;;;;;10446483;28;20052;-25
2023/02/10 03:38:39;;;;;;;2.50;1.10;;;16.90;60.00;;;;;;10451215;28;20087;-25
2023/02/10 03:43:42;;;;;;;4.53;1.30;;;16.90;60.00;;;;;;10450532;28;20049;-26
2023/02/10 03:48:45;;;;;;;2.97;1.10;;;16.80;60.00;;;;;;10449182;28;20051;-25
2023/02/10 03:53:47;;;;;;;1.63;0.93;;;16.80;59.90;;;;;;10440941;28;20076;-24
2023/02/10 03:58:49;;;;;;;2.53;1.23;;;16.80;60.00;;;;;;10452712;28;20140;-24
2023/02/10 04:03:52;;;;;;;2.80;1.38;;;16.80;60.10;;;;;;10447562;28;20602;-25
2023/02/10 04:08:54;;;;;;;2.38;1.08;;;16.70;60.10;;;;;;10470320;28;20130;-25
2023/02/10 04:13:55;;;;;;;1.60;1.23;;;16.80;60.10;;;;;;10451374;28;20148;-25
2023/02/10 04:18:59;;;;;;;2.77;1.30;;;16.70;60.00;;;;;;10451269;28;20577;-24
2023/02/10 04:24:01;;;;;;;4.25;1.27;;;16.70;60.00;;;;;;10459519;28;20045;-26
2023/02/10 04:29:03;;;;;;;3.85;1.08;;;16.70;60.00;;;;;;10449925;28;20170;-25
2023/02/10 04:34:06;;;;;;;2.30;1.40;;;16.70;59.90;;;;;;10451435;28;20072;-25
2023/02/10 04:39:09;;;;;;;4.82;1.17;;;16.80;59.70;;;;;;10450142;28;21007;-25
2023/02/10 04:44:11;;;;;;;3.15;1.45;;;17.10;59.60;;;;;;10449879;28;20056;-26
2023/02/10 04:49:14;;;;;;;2.63;1.00;;;17.30;58.60;;;;;;10449750;28;20037;-24
2023/02/10 04:54:16;;;;;;;2.88;1.25;;;17.50;58.20;;;;;;10450306;28;20467;-26
2023/02/10 04:59:17;;;;;;;4.30;0.97;;;17.60;58.00;;;;;;10450304;28;20052;-27
2023/02/10 05:04:21;;;;;;;4.07;1.70;;;17.70;57.70;;;;;;10452718;28;20483;-25
2023/02/10 05:09:23;;;;;;;2.28;1.15;;;17.80;57.50;;;;;;10456096;28;20055;-24
2023/02/10 05:14:25;;;;;;;2.67;1.33;;;17.90;57.40;;;;;;10449851;28;20060;-24
2023/02/10 05:19:29;;;;;;;5.03;1.67;;;18.00;57.30;;;;;;10439978;28;20053;-24
2023/02/10 05:24:30;;;;;;;2.05;1.33;;;18.00;57.20;;;;;;10455224;28;20063;-23
2023/02/10 05:29:32;;;;;;;3.13;1.30;;;18.00;57.20;;;;;;10449203;28;20041;-27
2023/02/10 05:34:35;;;;;;;2.92;1.30;;;18.00;57.10;;;;;;10448234;28;20067;-25
2023/02/10 05:39:38;;;;;;;3.58;1.60;;;18.00;57.10;;;;;;10438264;28;20613;-25
2023/02/10 05:44:39;;;;;;;3.60;1.45;;;18.00;57.30;;;;;;10449053;28;20077;-25
2023/02/10 05:49:43;;;;;;;3.67;1.43;;;18.00;57.30;;;;;;10446771;28;20057;-25
2023/02/10 05:54:44;;;;;;;3.55;1.80;;;18.00;57.50;;;;;;10444492;28;20471;-25
2023/02/10 05:59:46;;;;;;;3.72;1.20;;;18.00;57.50;;;;;;10445788;28;20130;-25
2023/02/10 06:04:50;;;;;;;1.73;1.40;;;17.90;57.60;;;;;;10446793;28;20130;-25
2023/02/10 06:09:52;;;;;;;8.50;1.50;;;17.90;57.60;;;;;;10436710;28;20123;-25
2023/02/10 06:14:53;;;;;;;1.50;1.00;;;18.00;57.70;;;;;;10437082;28;20405;-26
2023/02/10 06:19:57;;;;;;;3.05;1.40;;;17.90;57.70;;;;;;10441631;28;20052;-26
2023/02/10 06:24:59;;;;;;;2.72;1.23;;;17.90;57.70;;;;;;10437287;28;20112;-25
2023/02/10 06:30:01;;;;;;;1.95;1.20;;;18.00;57.70;;;;;;10441238;28;20057;-25
2023/02/10 06:35:05;;;;;;;1.45;0.93;;;18.00;57.70;;;;;;10440844;28;20052;-25
2023/02/10 06:40:07;;;;;;;5.97;1.20;;;18.00;57.70;;;;;;10441577;28;20044;-22
2023/02/10 06:45:10;;;;;;;3.03;1.42;;;18.00;57.70;;;;;;10440023;28;20147;-23
2023/02/10 06:50:13;;;;;;;3.67;1.30;;;17.90;57.70;;;;;;10439575;28;20123;-25
2023/02/10 06:55:16;;;;;;;3.05;1.23;;;17.80;58.10;;;;;;10442493;28;20510;-25
2023/02/10 07:00:18;;;;;;;3.15;1.30;;;17.90;58.10;;;;;;10441311;28;20071;-25
2023/02/10 07:15:11;;;;;;;2.33;1.02;;;17.80;57.80;;;;;;10522899;27;20113;-27
2023/02/10 07:20:13;;;;;;;3.05;1.40;;;17.80;58.10;;;;;;10535045;28;20131;-25
2023/02/10 07:25:14;;;;;;;2.55;1.50;;;17.80;58.00;;;;;;10541939;28;20044;-25
2023/02/10 07:30:18;;;;;;;2.25;1.30;;;17.80;58.00;;;;;;10525237;28;20063;-26
2023/02/10 07:35:20;;;;;;;4.30;2.03;;;17.80;57.90;;;;;;10520974;28;20043;-25
2023/02/10 07:40:22;;;;;;;4.38;1.27;;;17.70;58.00;;;;;;10524887;28;20563;-24
2023/02/10 07:45:27;;;;;;;3.10;1.08;;;17.70;58.20;;;;;;10529275;28;20052;-25
2023/02/10 07:50:29;;;;;;;2.42;1.55;;;17.60;58.20;;;;;;10526176;28;20052;-24
2023/02/10 07:55:30;;;;;;;2.97;1.83;;;17.60;58.20;;;;;;10529321;28;20067;-25
2023/02/10 08:00:34;;;;;;;4.93;2.00;;;17.50;58.40;;;;;;10532234;28;20565;-26
2023/02/10 08:05:36;;;;;;;2.97;1.90;;;17.50;58.50;;;;;;10532717;28;20052;-27
2023/02/10 08:10:38;;;;;;;2.45;1.30;;;17.30;59.20;;;;;;10527554;28;20455;-24
2023/02/10 08:15:42;;;;;;;3.63;1.67;;;17.40;59.40;;;;;;10535864;28;20051;-25
2023/02/10 08:20:43;;;;;;;3.20;1.27;;;17.30;59.90;;;;;;10549013;28;20043;-25
2023/02/10 08:25:45;;;;;;;9.40;4.17;;;17.40;59.90;;;;;;10528270;28;20147;-24
2023/02/10 08:30:49;;;;;;;6.25;2.75;;;17.30;60.30;;;;;;10524247;28;20571;-25
2023/02/10 08:35:50;;;;;;;6.28;2.90;;;17.20;60.70;;;;;;10513900;28;20462;-27
2023/02/10 08:40:56;;;;;;;7.90;4.60;;;17.10;61.20;;;;;;10515950;28;20701;-24
2023/02/10 08:46:01;;;;;;;8.70;4.57;;;17.00;61.50;;;;;;10510334;28;20044;-23
2023/02/10 08:51:06;;;;;;;7.15;3.63;;;17.00;61.40;;;;;;10509971;28;20044;-26
2023/02/10 08:56:10;;;;;;;7.65;4.22;;;17.00;61.50;;;;;;10519179;28;20044;-25
2023/02/10 09:01:17;;;;;;;4.55;2.67;;;16.40;63.10;;;;;;10526566;28;20127;-25
2023/02/10 09:06:21;;;;;;;2.55;1.63;;;16.90;62.10;;;;;;10524473;28;20120;-24
2023/02/10 09:11:24;;;;;;;2.97;1.90;;;17.00;61.50;;;;;;10521365;28;20574;-25
2023/02/10 09:16:27;;;;;;;9.25;4.65;;;17.00;61.30;;;;;;10515724;28;20064;-26
2023/02/10 09:21:30;;;;;;;3.20;1.70;;;16.90;60.90;;;;;;10521138;28;20480;-25
2023/02/10 09:26:32;;;;;;;2.65;1.67;;;16.90;61.60;;;;;;10509530;28;20049;-24
2023/02/10 09:31:36;;;;;;;3.83;1.80;;;17.00;62.00;;;;;;10511540;28;20510;-25
2023/02/10 09:36:38;;;;;;;17.27;2.03;;;17.00;62.00;;;;;;10513510;28;20048;-24
2023/02/10 09:41:52;;;;;;;6.50;1.95;;;17.00;62.10;;;;;;10525752;28;20456;-25
2023/02/10 09:47:11;;;;;;;3.17;1.70;;;17.00;62.60;;;;;;10522541;28;20146;-25
2023/02/10 09:52:20;;;;;;;5.28;1.60;;;17.00;62.80;;;;;;10500143;28;20083;-25
2023/02/10 09:57:37;;;;;;;4.10;1.67;;;17.00;63.30;;;;;;10497657;28;20075;-31
2023/02/10 10:02:47;;;;;;;5.10;1.80;;;16.90;63.50;;;;;;10506731;28;20044;-25
2023/02/10 10:07:51;;;;;;;2.42;1.45;;;16.90;63.30;;;;;;10511827;28;20123;-25
2023/02/10 10:12:54;;;;;;;3.28;1.45;;;17.00;63.50;;;;;;10513816;28;20518;-24
2023/02/10 10:18:06;;;;;;;5.22;2.60;;;17.10;63.10;;;;;;10525936;28;20135;-26
2023/02/10 10:23:27;;;;;;;2.58;1.67;;;17.00;63.30;;;;;;10516938;28;20070;-26
2023/02/10 10:28:42;;;;;;;3.58;2.00;;;17.00;62.70;;;;;;10511470;28;20481;-25
2023/02/10 10:33:51;;;;;;;4.57;1.60;;;17.10;63.10;;;;;;10510574;28;20082;-25
2023/02/10 10:38:57;;;;;;;6.07;3.35;;;17.10;63.20;;;;;;10501597;28;20069;-25
2023/02/10 10:43:59;;;;;;;3.78;1.75;;;16.80;63.80;;;;;;10502383;28;20072;-25
2023/02/10 10:49:03;;;;;;;6.13;2.90;;;16.50;65.70;;;;;;10517145;28;20055;-25
2023/02/10 10:54:08;;;;;;;4.43;3.33;;;16.40;64.90;;;;;;10520033;28;20045;-25
2023/02/10 10:59:14;;;;;;;11.60;7.20;;;16.40;66.00;;;;;;10542518;28;20052;-25
2023/02/10 11:04:20;;;;;;;10.95;5.28;;;16.30;65.30;;;;;;10514979;28;20417;-25
2023/02/10 11:09:27;;;;;;;4.07;2.10;;;15.90;61.20;;;;;;10525662;28;20064;-25
2023/02/10 11:14:31;;;;;;;6.18;2.20;;;16.80;64.80;;;;;;10509567;28;20497;-24
2023/02/10 11:19:35;;;;;;;4.07;1.95;;;17.00;64.40;;;;;;10503074;28;20057;-25
2023/02/10 11:24:37;;;;;;;10.43;5.47;;;16.80;65.70;;;;;;10516618;28;20048;-24
2023/02/10 11:29:47;;;;;;;3.67;2.10;;;16.90;64.40;;;;;;10525624;28;20139;-24
2023/02/10 11:34:53;;;;;;;4.47;2.22;;;17.00;64.90;;;;;;10524029;28;20486;-25
2023/02/10 11:39:57;;;;;;;5.18;3.05;;;16.80;65.30;;;;;;10522464;28;20139;-24
2023/02/10 11:45:01;;;;;;;12.10;5.45;;;15.80;67.80;;;;;;10517095;28;20071;-25
2023/02/10 11:50:18;;;;;;;14.95;7.82;;;14.50;74.80;;;;;;10512017;28;20116;-25
2023/02/10 11:55:26;;;;;;;12.70;6.28;;;11.10;83.80;;;;;;10503443;28;20070;-24
2023/02/10 12:00:35;;;;;;;20.23;7.70;;;12.20;92.20;;;;;;10520313;28;20075;-24
2023/02/10 12:05:44;;;;;;;12.98;6.20;;;10.00;98.40;;;;;;10528803;28;20139;-24
2023/02/10 12:10:48;;;;;;;11.45;4.82;;;11.70;96.70;;;;;;10517603;28;20124;-24
2023/02/10 12:16:02;;;;;;;13.05;4.95;;;13.30;90.80;;;;;;10530958;28;20091;-25
2023/02/10 12:21:16;;;;;;;23.42;7.07;;;12.40;87.70;;;;;;10528086;28;20082;-25
2023/02/10 12:26:27;;;;;;;18.75;6.43;;;11.00;97.40;;;;;;10519038;28;20165;-26
2023/02/10 12:31:37;;;;;;;18.52;7.15;;;11.20;95.50;;;;;;10516194;28;20139;-23
2023/02/10 12:36:50;;;;;;;10.02;4.60;;;10.70;96.30;;;;;;10533737;28;20086;-25
2023/02/10 12:42:05;;;;;;;19.92;7.85;;;12.30;92.80;;;;;;10523957;28;20075;-25
2023/02/10 12:47:18;;;;;;;14.30;7.35;;;11.00;93.70;;;;;;10533745;28;20141;-25
2023/02/10 12:52:27;;;;;;;20.35;8.40;;;10.60;93.30;;;;;;10514302;28;20954;-24
2023/02/10 12:57:39;;;;;;;17.40;7.20;;;11.60;87.80;;;;;;10518723;28;20044;-24
2023/02/10 13:02:45;;;;;;;15.73;6.97;;;11.40;91.20;;;;;;10508885;28;20048;-25
2023/02/10 13:07:51;;;;;;;24.65;8.45;;;11.20;91.00;;;;;;10527646;28;20051;-25
2023/02/10 13:12:57;;;;;;;12.38;5.53;;;12.00;85.30;;;;;;10532761;28;20545;-24
2023/02/10 13:18:00;;;;;;;13.55;5.25;;;13.20;92.90;;;;;;10531038;28;20463;-26
2023/02/10 13:23:07;;;;;;;;;;;12.30;92.00;;;;;;10527440;28;20625;-25
2023/02/10 13:28:18;;;;;;;13.32;4.80;;;11.00;94.10;;;;;;10500289;28;19955;-25
2023/02/10 13:33:28;;;;;;;20.17;7.45;;;12.90;94.10;;;;;;10502466;28;20063;-27
2023/02/10 13:38:33;;;;;;;12.23;3.58;;;11.70;93.40;;;;;;10498311;28;20181;-33
2023/02/10 13:43:35;;;;;;;12.07;6.13;;;12.50;92.60;;;;;;10501651;28;20048;-25
2023/02/10 13:48:39;;;;;;;19.20;8.23;;;12.00;95.40;;;;;;10499045;28;20044;-24
2023/02/10 13:53:42;;;;;;;18.40;7.22;;;11.70;85.10;;;;;;10496307;28;20052;-27
2023/02/10 13:58:53;;;;;;;18.38;6.68;;;12.30;85.10;;;;;;10501680;28;21263;-24
2023/02/10 14:03:56;;;;;;;16.95;8.63;;;12.10;91.40;;;;;;10508290;28;20056;-26
2023/02/10 14:09:06;;;;;;;17.52;7.88;;;13.10;82.80;;;;;;10503832;28;20127;-27
2023/02/10 14:14:24;;;;;;;18.00;7.25;;;13.00;92.50;;;;;;10500153;28;20090;-25
2023/02/10 14:19:31;;;;;;;24.70;8.57;;;13.70;90.30;;;;;;10500394;28;20059;-24
2023/02/10 14:24:37;;;;;;;11.27;6.28;;;11.60;95.30;;;;;;10507962;28;20071;-24
2023/02/10 14:29:45;;;;;;;17.52;9.30;;;12.80;94.20;;;;;;10519664;28;20172;-25
2023/02/10 14:34:57;;;;;;;21.35;8.02;;;13.50;87.70;;;;;;10508918;28;20089;-25
2023/02/10 14:40:03;;;;;;;15.03;7.50;;;13.70;83.00;;;;;;10513036;28;20076;-26
2023/02/10 14:45:05;;;;;;;14.15;7.05;;;13.10;92.40;;;;;;10515490;28;20673;-25
2023/02/10 14:50:08;;;;;;;10.45;7.07;;;13.60;94.00;;;;;;10514841;28;20052;-26
2023/02/10 14:55:25;;;;;;;19.55;10.00;;;13.10;93.70;;;;;;10520112;28;20720;-24
2023/02/10 15:00:27;;;;;;;16.98;6.57;;;11.30;99.90;;;;;;10516229;28;20048;-31
2023/02/10 15:05:34;;;;;;;15.17;6.80;;;14.00;93.10;;;;;;10502969;28;20097;-26
2023/02/10 15:10:42;;;;;;;14.32;7.55;;;14.00;85.70;;;;;;10507031;28;20085;-24
2023/02/10 15:15:49;;;;;;;17.23;8.80;;;12.50;95.40;;;;;;10520656;28;20044;-24
2023/02/10 15:20:53;;;;;;;18.25;10.02;;;12.10;95.10;;;;;;10526064;28;20504;-24
2023/02/10 15:26:07;;;;;;;19.65;9.77;;;12.80;87.00;;;;;;10517537;28;20074;-25
2023/02/10 15:31:24;;;;;;;20.98;9.50;;;12.40;89.70;;;;;;10521845;28;20040;-26
2023/02/10 15:36:28;;;;;;;24.02;10.15;;;11.20;98.10;;;;;;10516622;28;20114;-24
2023/02/10 15:41:43;;;;;;;23.48;9.98;;;11.20;98.30;;;;;;10531156;28;20083;-24
2023/02/10 15:46:45;;;;;;;12.52;5.78;;;12.20;91.90;;;;;;10523106;28;20134;-25
2023/02/10 15:51:50;;;;;;;12.77;6.18;;;14.40;94.60;;;;;;10522937;28;20566;-25
2023/02/10 15:56:57;;;;;;;14.75;8.65;;;12.20;99.90;;;;;;10513562;28;20196;-26
2023/02/10 16:02:00;;;;;;;15.40;5.95;;;12.50;92.50;;;;;;10523812;28;20051;-24
2023/02/10 16:07:03;;;;;;;18.13;7.40;;;12.40;99.70;;;;;;10537295;28;20067;-25
2023/02/10 16:12:06;;;;;;;16.02;8.13;;;13.40;96.50;;;;;;10517107;28;20131;-25
2023/02/10 16:17:10;;;;;;;19.77;7.82;;;11.10;98.50;;;;;;10526070;28;20036;-25
2023/02/10 16:22:12;;;;;;;19.42;9.10;;;11.00;99.90;;;;;;10524678;28;20525;-25
2023/02/10 16:27:15;;;;;;;10.20;5.20;;;11.70;97.50;;;;;;10512441;28;20075;-25
2023/02/10 16:32:17;;;;;;;21.25;8.18;;;13.30;99.50;;;;;;10513169;28;20400;-27
2023/02/10 16:37:22;;;;;;;24.95;10.93;;;14.30;85.30;;;;;;10525396;28;20105;-26
2023/02/10 16:42:25;;;;;;;11.57;5.60;;;11.30;99.90;;;;;;10514797;28;20039;-28
2023/02/10 16:47:27;;;;;;;24.00;10.07;;;12.80;99.90;;;;;;10532540;28;20036;-25
2023/02/10 16:52:30;;;;;;;21.90;9.87;;;12.80;98.20;;;;;;10520301;28;20385;-24
2023/02/10 16:57:34;;;;;;;15.63;8.88;;;11.80;95.30;;;;;;10525957;28;20061;-25
2023/02/10 17:02:36;;;;;;;14.88;8.20;;;13.10;92.20;;;;;;10523187;28;20063;-25
2023/02/10 17:07:38;;;;;;;16.17;8.77;;;12.00;99.90;;;;;;10529367;28;20154;-28
2023/02/10 17:12:42;;;;;;;15.93;5.22;;;12.10;99.90;;;;;;10529219;28;20056;-25
2023/02/10 17:17:44;;;;;;;16.58;6.82;;;13.90;97.60;;;;;;10515891;28;20101;-23
2023/02/10 17:22:46;;;;;;;25.03;6.60;;;9.80;99.90;;;;;;10518549;28;20093;-25
2023/02/10 17:27:50;;;;;;;28.48;5.45;;;10.30;99.90;;;;;;10512562;28;20820;-27
2023/02/10 17:32:52;;;;;;;10.65;3.63;;;10.00;99.90;;;;;;10510614;28;20044;-26
2023/02/10 17:43:14;;;;;;;6.40;2.47;;;10.90;99.90;;;;;;10518538;28;20051;-26
2023/02/10 17:48:16;;;;;;;11.60;2.47;;;9.80;99.90;;;;;;10524710;28;20054;-26
2023/02/10 17:53:18;;;;;;;10.70;2.33;;;11.20;99.90;;;;;;10514203;28;20425;-24
2023/02/10 17:58:21;;;;;;;16.52;3.45;;;12.00;99.90;;;;;;10519702;28;20519;-25
2023/02/10 18:03:23;;;;;;;13.30;3.20;;;11.10;99.90;;;;;;10509148;28;20044;-26
2023/02/10 18:08:25;;;;;;;16.07;2.33;;;10.30;99.90;;;;;;10522740;28;20048;-25
2023/02/10 18:13:29;;;;;;;10.25;2.60;;;11.70;99.90;;;;;;10504742;28;20113;-25
2023/02/10 18:18:31;;;;;;;12.35;2.50;;;12.00;99.90;;;;;;10526395;28;20067;-24
2023/02/10 18:23:34;;;;;;;19.00;3.22;;;10.30;99.90;;;;;;10517374;28;20048;-24
2023/02/10 18:28:37;;;;;;;;;;;9.60;99.90;;;;;;10511709;28;20090;-25
2023/02/10 18:33:39;;;;;;;15.57;2.47;;;10.50;99.90;;;;;;10498446;28;19928;-25
2023/02/10 18:38:41;;;;;;;11.02;2.20;;;11.30;99.90;;;;;;10506544;28;20059;-26
2023/02/10 18:43:47;;;;;;;14.47;3.13;;;10.80;99.90;;;;;;10512381;28;20051;-25
2023/02/10 18:48:48;;;;;;;9.40;3.83;;;10.20;99.90;;;;;;10518574;28;20044;-26
2023/02/10 18:53:51;;;;;;;13.15;2.92;;;10.60;99.90;;;;;;10518227;28;20166;-27
2023/02/10 18:58:54;;;;;;;21.00;3.40;;;10.60;99.90;;;;;;10513217;28;20044;-25
2023/02/10 19:04:02;;;;;;;17.70;3.33;;;9.60;99.90;;;;;;10506996;28;20082;-27
2023/02/10 19:09:04;;;;;;;15.18;3.13;;;10.00;99.90;;;;;;10508320;28;20058;-25
2023/02/10 19:14:07;;;;;;;16.50;3.37;;;10.20;99.90;;;;;;10511145;28;20079;-27
2023/02/10 19:19:10;;;;;;;22.33;2.83;;;10.00;99.90;;;;;;10504900;28;20488;-24
2023/02/10 19:24:14;;;;;;;21.25;3.03;;;11.40;99.90;;;;;;10502251;28;20485;-26
2023/02/10 19:29:17;;;;;;;7.35;1.52;;;10.40;99.90;;;;;;10504935;28;20147;-26
2023/02/10 19:34:19;;;;;;;18.98;3.25;;;13.30;99.90;;;;;;10516481;28;20091;-25
2023/02/10 19:39:21;;;;;;;6.75;2.38;;;11.10;99.90;;;;;;10514170;28;20466;-28
2023/02/10 19:44:25;;;;;;;19.07;2.87;;;12.00;99.90;;;;;;10541126;28;20048;-26
2023/02/10 19:49:27;;;;;;;10.57;2.15;;;12.50;99.20;;;;;;10520444;28;20482;-28
2023/02/10 19:54:29;;;;;;;26.37;3.83;;;13.20;99.10;;;;;;10513218;28;20083;-28
2023/02/10 19:59:32;;;;;;;9.02;2.20;;;13.90;92.20;;;;;;10517734;28;20715;-24
2023/02/10 20:04:36;;;;;;;26.58;3.15;;;13.70;99.90;;;;;;10514000;28;20062;-27
2023/02/10 20:09:39;;;;;;;16.63;2.85;;;11.90;99.90;;;;;;10509592;28;20055;-25
2023/02/10 20:14:42;;;;;;;14.60;2.53;;;12.00;99.90;;;;;;10510012;28;20114;-25
2023/02/10 20:19:44;;;;;;;16.90;2.55;;;12.10;99.90;;;;;;10519802;28;20058;-26
2023/02/10 20:24:46;;;;;;;18.57;3.37;;;13.00;99.90;;;;;;10528502;28;20059;-27
2023/02/10 20:29:49;;;;;;;17.42;2.88;;;12.30;99.80;;;;;;10527889;28;20044;-25
2023/02/10 20:34:52;;;;;;;17.50;2.65;;;10.70;99.90;;;;;;10528612;28;20109;-26
2023/02/10 20:39:54;;;;;;;16.38;2.75;;;11.30;99.90;;;;;;10522541;28;20135;-25
2023/02/10 20:45:03;;;;;;;20.15;2.70;;;11.30;99.90;;;;;;10538225;28;20048;-26
2023/02/10 20:50:05;;;;;;;17.85;3.53;;;10.30;99.90;;;;;;10528251;28;20072;-26
2023/02/10 20:55:08;;;;;;;19.83;2.95;;;10.90;99.90;;;;;;10525748;28;20480;-26
2023/02/10 21:00:13;;;;;;;16.80;3.53;;;10.50;99.90;;;;;;10521364;28;21384;-25
2023/02/10 21:05:16;;;;;;;16.30;2.22;;;12.40;99.90;;;;;;10524705;28;20044;-24
2023/02/10 21:10:18;;;;;;;18.95;2.58;;;11.70;99.90;;;;;;10544863;28;20131;-25
2023/02/10 21:15:21;;;;;;;26.43;3.30;;;15.70;92.50;;;;;;10517051;28;20186;-24
2023/02/10 21:20:23;;;;;;;23.77;3.13;;;12.40;95.40;;;;;;10515112;28;20048;-24
2023/02/10 21:25:25;;;;;;;16.97;2.57;;;13.70;99.90;;;;;;10521432;28;20044;-24
2023/02/10 21:30:29;;;;;;;15.80;1.95;;;15.90;90.90;;;;;;10519995;28;20040;-25
2023/02/10 21:35:31;;;;;;;18.60;3.33;;;16.40;87.80;;;;;;10519897;28;20814;-27
2023/02/10 21:40:33;;;;;;;13.60;2.30;;;15.10;87.30;;;;;;10520407;28;20404;-26
2023/02/10 21:45:38;;;;;;;13.70;3.13;;;14.70;90.50;;;;;;10524986;28;20142;-25
2023/02/10 21:50:40;;;;;;;18.35;2.88;;;14.50;96.00;;;;;;10523583;28;20062;-24
2023/02/10 21:55:42;;;;;;;12.63;2.27;;;13.70;99.90;;;;;;10512888;28;20561;-26
2023/02/10 22:00:45;;;;;;;16.27;2.60;;;14.80;95.60;;;;;;10508867;28;20044;-24
2023/02/10 22:05:54;;;;;;;15.27;2.58;;;14.70;94.90;;;;;;10527876;28;20044;-24
2023/02/10 22:10:56;;;;;;;26.00;4.38;;;12.90;99.90;;;;;;10517380;28;20555;-24
2023/02/10 22:15:59;;;;;;;28.17;5.20;;;13.30;90.60;;;;;;10523547;28;20480;-26
2023/02/10 22:21:05;;;;;;;13.38;1.85;;;13.10;96.60;;;;;;10522970;28;20451;-27
2023/02/10 22:26:08;;;;;;;22.25;3.65;;;14.60;96.00;;;;;;10531345;28;20060;-25
2023/02/10 22:31:14;;;;;;;14.27;2.97;;;14.10;94.40;;;;;;10524052;28;20067;-24
2023/02/10 22:36:16;;;;;;;21.52;4.15;;;13.80;97.60;;;;;;10535659;28;20412;-24
2023/02/10 22:41:21;;;;;;;20.30;5.27;;;13.20;99.90;;;;;;10508457;28;20063;-26
2023/02/10 22:46:24;;;;;;;20.38;3.63;;;12.90;94.90;;;;;;10508730;28;20590;-26
2023/02/10 22:51:28;;;;;;;26.40;4.40;;;12.90;99.40;;;;;;10520009;28;20048;-26
2023/02/10 22:56:32;;;;;;;25.48;2.92;;;13.40;93.90;;;;;;10516968;28;20052;-24
2023/02/10 23:01:37;;;;;;;26.52;4.72;;;13.10;99.90;;;;;;10513089;28;20135;-25
2023/02/10 23:06:39;;;;;;;14.65;2.72;;;13.30;95.30;;;;;;10516590;28;20519;-26
2023/02/10 23:11:43;;;;;;;16.70;3.37;;;12.50;99.90;;;;;;10541417;28;20039;-24
2023/02/10 23:16:51;;;;;;;10.23;2.78;;;14.80;90.40;;;;;;10519033;28;20135;-25
2023/02/10 23:21:53;;;;;;;17.50;2.55;;;12.80;99.90;;;;;;10522381;28;20040;-25
2023/02/10 23:26:55;;;;;;;16.10;2.85;;;14.40;96.90;;;;;;10510570;28;20127;-25
2023/02/10 23:31:58;;;;;;;24.73;4.90;;;15.70;86.20;;;;;;10516185;28;20052;-24
2023/02/10 23:37:00;;;;;;;15.40;2.40;;;14.00;93.80;;;;;;10515491;28;20084;-24
2023/02/10 23:42:03;;;;;;;6.05;2.03;;;14.40;94.70;;;;;;10515568;28;20140;-26
2023/02/10 23:47:06;;;;;;;22.50;3.47;;;15.40;91.70;;;;;;10523896;28;20123;-25
2023/02/10 23:52:08;;;;;;;13.05;2.70;;;14.30;85.80;;;;;;10523948;28;20128;-25
2023/02/10 23:57:09;;;;;;;21.63;3.05;;;12.30;99.90;;;;;;10532718;28;20044;-25
